Time;durP1;ratioP1;P1;durP2;ratioP2;P2;SDS_P1;SDS_P2;PMS_P1;PMS_P2;Temp;Humidity;BMP_temperature;BMP_pressure;BME280_temperature;BME280_humidity;BME280_pressure;Samples;Min_cycle;Max_cycle;Signal;HPM_P1;HPM_P2
2022/10/02 00:01:59;;;;;;;5.00;2.50;;;14.20;87.00;;;;;;5080987;28;20438;-74
2022/10/02 00:04:33;;;;;;;10.57;2.70;;;14.20;90.30;;;;;;5087879;28;20410;-74
2022/10/02 00:07:05;;;;;;;8.30;2.53;;;14.20;93.00;;;;;;5088096;28;20429;-74
2022/10/02 00:09:41;;;;;;;4.93;2.20;;;14.20;90.70;;;;;;5098099;28;20429;-75
2022/10/02 00:12:12;;;;;;;7.73;2.73;;;14.20;91.80;;;;;;5089394;28;20441;-74
2022/10/02 00:14:41;;;;;;;9.00;2.50;;;14.10;92.40;;;;;;5090076;28;20416;-75
2022/10/02 00:17:26;;;;;;;6.67;2.93;;;14.10;92.50;;;;;;5084124;28;20412;-75
2022/10/02 00:19:55;;;;;;;13.00;2.83;;;14.10;93.30;;;;;;5090838;28;20449;-74
2022/10/02 00:22:36;;;;;;;5.90;2.50;;;14.20;95.90;;;;;;5083565;28;20786;-76
2022/10/02 00:25:06;;;;;;;15.17;2.87;;;14.10;92.90;;;;;;5076764;28;20449;-73
2022/10/02 00:27:53;;;;;;;7.43;2.50;;;14.00;94.60;;;;;;5091702;28;20760;-74
2022/10/02 00:30:19;;;;;;;8.83;2.60;;;14.10;95.90;;;;;;5084128;28;20946;-75
2022/10/02 00:33:00;;;;;;;7.87;2.70;;;14.20;95.30;;;;;;5082561;28;20434;-74
2022/10/02 00:35:53;;;;;;;6.33;2.20;;;14.20;97.50;;;;;;5079019;28;20203;-74
2022/10/02 00:38:35;;;;;;;7.13;2.60;;;14.20;94.10;;;;;;5085459;28;20533;-74
2022/10/02 00:41:31;;;;;;;8.00;3.03;;;14.20;93.60;;;;;;5083016;28;20421;-75
2022/10/02 00:44:34;;;;;;;5.67;2.83;;;14.20;94.60;;;;;;5087470;28;20469;-74
2022/10/02 00:47:18;;;;;;;7.27;2.90;;;14.10;94.40;;;;;;5087840;28;20413;-74
2022/10/02 00:50:07;;;;;;;7.90;2.73;;;14.10;98.50;;;;;;5087971;28;21009;-74
2022/10/02 00:52:59;;;;;;;5.63;2.43;;;14.10;97.90;;;;;;5088639;28;21003;-73
2022/10/02 00:55:36;;;;;;;8.03;2.60;;;14.10;96.40;;;;;;5084388;28;20762;-74
2022/10/02 00:58:16;;;;;;;5.80;2.07;;;14.10;97.00;;;;;;5082644;28;20979;-75
2022/10/02 01:00:49;;;;;;;9.60;2.50;;;14.10;98.00;;;;;;5088667;28;20430;-74
2022/10/02 01:03:25;;;;;;;10.50;2.57;;;14.10;97.60;;;;;;5086265;28;20823;-76
2022/10/02 01:05:51;;;;;;;7.90;2.70;;;14.10;97.80;;;;;;5089628;28;20433;-77
2022/10/02 01:08:17;;;;;;;8.63;2.93;;;14.10;99.90;;;;;;5087558;28;20950;-74
2022/10/02 01:10:44;;;;;;;16.60;2.27;;;13.90;99.90;;;;;;5085644;28;20176;-74
2022/10/02 01:13:09;;;;;;;7.60;2.30;;;14.10;99.90;;;;;;5091022;28;20450;-74
2022/10/02 01:15:38;;;;;;;6.33;2.80;;;14.00;99.90;;;;;;5080744;28;20430;-74
2022/10/02 01:18:06;;;;;;;7.00;2.40;;;14.00;99.90;;;;;;5091441;28;20209;-75
2022/10/02 01:20:40;;;;;;;8.60;3.43;;;14.00;99.90;;;;;;5085565;28;20434;-76
2022/10/02 01:23:18;;;;;;;12.73;2.97;;;14.10;99.90;;;;;;5084474;28;20417;-73
2022/10/02 01:25:44;;;;;;;6.20;3.00;;;14.00;99.90;;;;;;5083138;28;20430;-73
2022/10/02 01:28:10;;;;;;;7.23;3.20;;;14.00;99.90;;;;;;5090894;28;20628;-74
2022/10/02 01:30:39;;;;;;;8.67;3.20;;;14.00;99.90;;;;;;5081683;28;20434;-77
2022/10/02 01:33:05;;;;;;;12.80;3.20;;;14.00;99.90;;;;;;5082396;28;20501;-76
2022/10/02 01:35:34;;;;;;;12.40;3.20;;;14.00;99.90;;;;;;5084453;28;20983;-75
2022/10/02 01:38:04;;;;;;;8.33;3.10;;;14.10;99.90;;;;;;5082071;28;20204;-74
2022/10/02 01:40:32;;;;;;;8.33;3.77;;;14.10;99.90;;;;;;5078350;28;20475;-74
2022/10/02 01:43:01;;;;;;;10.10;3.60;;;14.10;99.90;;;;;;5084600;28;20429;-74
2022/10/02 01:45:42;;;;;;;8.87;3.70;;;14.10;99.90;;;;;;5090224;28;20829;-73
2022/10/02 01:48:31;;;;;;;4.70;3.10;;;14.00;99.90;;;;;;5089340;28;20532;-74
2022/10/02 01:51:31;;;;;;;11.07;3.40;;;14.00;99.90;;;;;;5082944;28;20438;-74
2022/10/02 01:55:04;;;;;;;15.00;2.97;;;14.00;99.90;;;;;;5083295;28;20434;-75
2022/10/02 01:57:48;;;;;;;8.70;3.13;;;14.00;99.90;;;;;;5026759;28;20423;-73
2022/10/02 02:00:17;;;;;;;5.50;3.17;;;14.00;99.90;;;;;;5067267;28;20562;-74
2022/10/02 02:03:07;;;;;;;10.03;2.93;;;14.00;99.90;;;;;;5083105;28;20964;-75
2022/10/02 02:05:59;;;;;;;8.80;2.90;;;14.00;99.90;;;;;;5079793;28;20434;-74
2022/10/02 02:08:54;;;;;;;8.77;3.00;;;13.90;99.90;;;;;;5069192;28;20469;-75
2022/10/02 02:11:21;;;;;;;10.10;3.10;;;14.00;99.90;;;;;;5073139;28;20444;-73
2022/10/02 02:13:53;;;;;;;4.90;2.40;;;13.90;99.90;;;;;;5080770;28;20487;-74
2022/10/02 02:16:31;;;;;;;6.10;3.00;;;13.90;99.90;;;;;;5086155;28;20524;-74
2022/10/02 02:19:08;;;;;;;6.23;2.50;;;13.90;99.90;;;;;;5096370;28;20580;-73
2022/10/02 02:21:44;;;;;;;5.37;2.93;;;14.10;99.90;;;;;;5086899;28;20736;-75
2022/10/02 02:24:20;;;;;;;9.10;2.50;;;13.90;99.90;;;;;;5069516;28;20415;-75
2022/10/02 02:26:46;;;;;;;6.87;2.87;;;13.90;99.90;;;;;;5081772;28;20540;-76
2022/10/02 02:29:15;;;;;;;6.00;2.73;;;13.90;99.90;;;;;;5089066;28;20955;-74
2022/10/02 02:31:51;;;;;;;10.23;3.40;;;13.90;99.90;;;;;;5087231;28;20472;-77
2022/10/02 02:34:24;;;;;;;9.50;2.73;;;13.90;99.90;;;;;;5077625;28;20792;-73
2022/10/02 02:36:55;;;;;;;6.60;2.63;;;13.90;99.90;;;;;;5089280;28;20406;-74
2022/10/02 02:39:44;;;;;;;9.67;2.77;;;13.90;99.90;;;;;;5083861;28;20548;-74
2022/10/02 02:42:13;;;;;;;5.67;2.77;;;13.90;99.90;;;;;;5086573;28;20409;-74
2022/10/02 02:45:03;;;;;;;7.00;3.13;;;13.90;99.90;;;;;;5082315;28;20429;-74
2022/10/02 02:47:51;;;;;;;5.87;2.87;;;13.90;99.90;;;;;;5092843;28;20433;-73
2022/10/02 02:50:31;;;;;;;6.60;2.90;;;13.90;99.90;;;;;;5081094;28;20421;-74
2022/10/02 02:53:12;;;;;;;9.23;2.80;;;13.90;99.90;;;;;;5088185;28;20405;-73
2022/10/02 02:55:42;;;;;;;13.00;2.80;;;13.90;99.90;;;;;;5087033;28;20501;-75
2022/10/02 02:58:30;;;;;;;8.90;3.07;;;13.90;99.90;;;;;;5080982;28;20499;-76
2022/10/02 03:00:56;;;;;;;4.97;2.43;;;13.90;99.90;;;;;;5089096;28;20832;-74
2022/10/02 03:03:21;;;;;;;7.67;3.20;;;13.90;99.90;;;;;;5078964;28;20452;-73
2022/10/02 03:05:52;;;;;;;12.67;2.50;;;13.90;99.90;;;;;;5087195;28;20547;-75
2022/10/02 03:08:22;;;;;;;4.60;2.40;;;13.90;99.90;;;;;;5085753;28;20221;-77
2022/10/02 03:11:17;;;;;;;8.23;2.50;;;14.00;99.90;;;;;;5075943;28;20529;-75
2022/10/02 03:13:45;;;;;;;11.30;2.80;;;13.90;99.90;;;;;;5082359;28;20504;-74
2022/10/02 03:16:42;;;;;;;10.93;2.90;;;14.00;99.90;;;;;;5088494;28;20951;-74
2022/10/02 03:19:21;;;;;;;11.63;2.80;;;13.90;99.90;;;;;;5069978;28;20470;-74
2022/10/02 03:21:56;;;;;;;8.30;2.70;;;14.00;99.90;;;;;;5088481;28;20464;-75
2022/10/02 03:24:28;;;;;;;5.50;2.70;;;14.60;99.90;;;;;;5083301;28;20494;-75
2022/10/02 03:27:07;;;;;;;11.07;2.40;;;14.00;99.90;;;;;;5080384;28;20465;-74
2022/10/02 03:29:44;;;;;;;6.93;2.33;;;14.00;99.90;;;;;;5083875;28;20476;-74
2022/10/02 03:32:13;;;;;;;9.23;2.60;;;14.10;99.90;;;;;;5078725;28;20421;-74
2022/10/02 03:34:39;;;;;;;8.67;2.57;;;14.10;99.90;;;;;;5085733;28;20421;-74
2022/10/02 03:37:05;;;;;;;13.20;3.17;;;14.10;99.90;;;;;;5085904;28;20433;-75
2022/10/02 03:39:31;;;;;;;7.17;2.50;;;14.20;98.60;;;;;;5087637;28;20684;-77
2022/10/02 03:41:56;;;;;;;4.20;2.63;;;14.10;97.20;;;;;;5080915;28;20417;-76
2022/10/02 03:44:22;;;;;;;12.67;2.70;;;14.10;97.40;;;;;;5082049;28;20260;-74
2022/10/02 03:46:48;;;;;;;14.90;2.93;;;14.10;98.80;;;;;;5086529;28;20271;-73
2022/10/02 03:49:13;;;;;;;6.00;2.43;;;14.20;97.10;;;;;;5078919;28;20203;-74
2022/10/02 03:51:39;;;;;;;13.03;3.13;;;14.20;96.90;;;;;;5088135;28;20172;-77
2022/10/02 03:54:15;;;;;;;12.17;2.60;;;14.20;97.60;;;;;;5084383;28;20180;-75
2022/10/02 03:56:56;;;;;;;8.63;3.00;;;14.30;97.70;;;;;;5087635;28;20522;-74
2022/10/02 03:59:30;;;;;;;6.60;2.60;;;14.30;96.10;;;;;;5084356;28;20488;-74
2022/10/02 04:02:00;;;;;;;11.30;3.10;;;14.30;94.30;;;;;;5081562;28;20430;-74
2022/10/02 04:04:38;;;;;;;11.00;2.93;;;14.30;96.00;;;;;;5085452;28;20498;-74
2022/10/02 04:07:06;;;;;;;11.93;2.80;;;14.20;95.40;;;;;;5087518;28;20428;-77
2022/10/02 04:09:45;;;;;;;14.17;2.83;;;14.20;97.60;;;;;;5084547;28;20463;-78
2022/10/02 04:12:27;;;;;;;16.13;2.90;;;14.20;98.30;;;;;;5083765;28;20433;-75
2022/10/02 04:15:15;;;;;;;11.83;3.27;;;14.20;98.70;;;;;;5091579;28;20417;-75
2022/10/02 04:17:46;;;;;;;13.17;3.20;;;14.20;98.60;;;;;;5079108;28;20451;-77
2022/10/02 04:20:17;;;;;;;11.83;2.90;;;14.20;99.80;;;;;;5092214;28;20398;-77
2022/10/02 04:22:54;;;;;;;9.30;2.60;;;14.20;99.90;;;;;;5083359;28;20513;-75
2022/10/02 04:25:27;;;;;;;9.20;2.60;;;14.20;99.90;;;;;;5087884;28;20425;-74
2022/10/02 04:27:57;;;;;;;12.67;2.93;;;14.20;99.90;;;;;;5086642;28;20978;-75
2022/10/02 04:30:24;;;;;;;11.77;2.90;;;14.20;99.90;;;;;;5091720;28;20430;-76
2022/10/02 04:32:50;;;;;;;8.73;3.20;;;14.20;99.90;;;;;;5082582;28;20427;-75
2022/10/02 04:35:23;;;;;;;7.90;2.70;;;14.20;99.90;;;;;;5088928;28;20420;-75
2022/10/02 04:37:55;;;;;;;13.00;2.90;;;14.20;99.80;;;;;;5078075;28;20183;-74
2022/10/02 04:41:04;;;;;;;7.20;2.40;;;14.20;99.90;;;;;;5085138;28;20426;-76
2022/10/02 04:43:47;;;;;;;9.20;3.00;;;14.20;99.90;;;;;;5068190;28;20460;-76
2022/10/02 04:46:18;;;;;;;14.03;3.33;;;14.10;99.90;;;;;;5085311;28;20428;-73
2022/10/02 04:49:00;;;;;;;13.20;2.60;;;14.10;99.90;;;;;;5083503;28;20548;-77
2022/10/02 04:51:51;;;;;;;22.97;3.43;;;14.10;99.90;;;;;;5079893;28;20830;-74
2022/10/02 04:54:29;;;;;;;8.50;2.80;;;14.10;99.90;;;;;;5084854;28;20429;-76
2022/10/02 04:57:00;;;;;;;22.00;3.70;;;14.10;99.90;;;;;;5091662;28;20424;-74
2022/10/02 04:59:38;;;;;;;10.50;2.80;;;14.00;99.90;;;;;;5078418;28;20474;-74
2022/10/02 05:02:27;;;;;;;6.83;2.93;;;14.00;99.90;;;;;;5081473;28;20490;-75
2022/10/02 05:05:17;;;;;;;10.27;3.80;;;14.10;99.90;;;;;;5089166;28;20433;-75
2022/10/02 05:08:14;;;;;;;12.43;3.80;;;14.10;99.90;;;;;;5085697;28;20458;-74
2022/10/02 05:11:02;;;;;;;14.50;3.77;;;14.00;99.90;;;;;;5082337;28;20409;-74
2022/10/02 05:13:44;;;;;;;13.13;3.50;;;14.00;99.90;;;;;;5090191;28;20410;-74
2022/10/02 05:16:48;;;;;;;13.10;3.80;;;14.00;99.90;;;;;;5090787;28;20475;-74
2022/10/02 05:19:49;;;;;;;13.23;3.60;;;14.00;99.90;;;;;;5060240;28;20553;-73
2022/10/02 05:22:30;;;;;;;10.77;3.70;;;14.00;99.90;;;;;;5070046;28;20615;-73
2022/10/02 05:25:17;;;;;;;11.13;3.33;;;14.00;99.90;;;;;;5089085;28;20429;-74
2022/10/02 05:28:27;;;;;;;18.60;3.53;;;14.00;99.90;;;;;;5087336;28;20498;-74
2022/10/02 05:31:13;;;;;;;9.20;3.33;;;14.00;99.90;;;;;;5090216;28;20924;-74
2022/10/02 05:33:48;;;;;;;11.30;3.43;;;14.00;99.90;;;;;;5076020;28;20430;-74
2022/10/02 05:36:23;;;;;;;10.73;3.13;;;14.00;99.90;;;;;;5087902;28;20483;-74
2022/10/02 05:39:15;;;;;;;13.43;3.93;;;14.00;99.90;;;;;;5074877;28;20476;-74
2022/10/02 05:41:50;;;;;;;14.23;3.40;;;14.00;99.90;;;;;;5075306;28;20423;-74
2022/10/02 05:44:36;;;;;;;10.50;3.40;;;14.00;99.90;;;;;;5090717;28;20412;-75
2022/10/02 05:47:21;;;;;;;11.80;3.97;;;14.00;99.90;;;;;;5082114;28;20965;-76
2022/10/02 05:49:59;;;;;;;14.47;4.83;;;14.00;99.90;;;;;;5080616;28;20470;-74
2022/10/02 05:52:56;;;;;;;10.60;4.30;;;14.00;99.90;;;;;;5083940;28;20429;-74
2022/10/02 05:55:33;;;;;;;8.87;3.50;;;14.00;99.90;;;;;;5075227;28;20437;-76
2022/10/02 05:58:02;;;;;;;14.87;3.80;;;14.00;99.90;;;;;;5087983;28;20467;-72
2022/10/02 06:00:37;;;;;;;15.83;4.00;;;14.00;99.90;;;;;;5089509;28;20802;-72
2022/10/02 06:03:09;;;;;;;11.50;3.73;;;14.00;99.90;;;;;;5086813;28;20959;-72
2022/10/02 06:06:01;;;;;;;18.90;4.00;;;14.00;99.90;;;;;;5083316;28;20438;-72
2022/10/02 06:08:47;;;;;;;14.30;4.00;;;14.00;99.90;;;;;;5082487;28;20477;-72
2022/10/02 06:11:22;;;;;;;12.60;3.80;;;14.00;99.90;;;;;;5078936;28;20495;-72
2022/10/02 06:14:13;;;;;;;16.27;4.20;;;14.00;99.90;;;;;;5089934;28;20899;-73
2022/10/02 06:16:51;;;;;;;19.97;3.70;;;13.90;99.90;;;;;;5080050;28;20990;-72
2022/10/02 06:19:29;;;;;;;18.10;4.00;;;14.00;99.90;;;;;;5086732;28;20827;-73
2022/10/02 06:22:09;;;;;;;16.60;4.80;;;13.90;99.90;;;;;;5087446;28;20433;-73
2022/10/02 06:25:00;;;;;;;16.17;3.67;;;13.90;99.90;;;;;;5074126;28;20559;-74
2022/10/02 06:27:45;;;;;;;6.47;3.10;;;14.00;99.90;;;;;;5085180;28;20361;-74
2022/10/02 06:30:16;;;;;;;8.23;2.87;;;14.20;99.90;;;;;;5085083;28;20520;-74
2022/10/02 06:33:00;;;;;;;7.57;3.23;;;14.30;99.90;;;;;;5086923;28;20406;-76
2022/10/02 06:35:41;;;;;;;9.63;3.33;;;14.30;99.90;;;;;;5082620;28;20426;-74
2022/10/02 06:38:29;;;;;;;9.47;3.10;;;14.20;99.90;;;;;;5076625;28;20489;-75
2022/10/02 06:41:19;;;;;;;7.40;3.60;;;14.20;99.90;;;;;;5074004;28;20433;-75
2022/10/02 06:44:06;;;;;;;10.47;3.30;;;14.10;99.90;;;;;;5089542;28;20406;-77
2022/10/02 06:47:10;;;;;;;12.80;3.20;;;14.00;99.90;;;;;;5086136;28;20420;-74
2022/10/02 06:49:55;;;;;;;12.53;3.37;;;14.10;99.90;;;;;;5083052;28;20865;-75
2022/10/02 06:52:47;;;;;;;9.70;3.40;;;14.00;99.90;;;;;;5088849;28;20439;-73
2022/10/02 06:55:31;;;;;;;5.87;2.80;;;14.00;99.90;;;;;;5082439;28;20462;-74
2022/10/02 06:58:15;;;;;;;7.93;3.30;;;14.00;99.90;;;;;;5085603;28;20442;-76
2022/10/02 07:01:06;;;;;;;11.50;3.30;;;14.00;99.90;;;;;;5084358;28;20808;-74
2022/10/02 07:03:51;;;;;;;12.67;3.57;;;14.00;99.90;;;;;;5088649;28;20414;-73
2022/10/02 07:06:43;;;;;;;4.20;2.67;;;14.00;99.90;;;;;;5085226;28;20417;-76
2022/10/02 07:09:35;;;;;;;9.40;2.93;;;14.00;99.90;;;;;;5068832;28;20466;-74
2022/10/02 07:12:39;;;;;;;8.53;3.00;;;14.00;99.90;;;;;;5064066;28;20764;-73
2022/10/02 07:15:30;;;;;;;8.30;2.83;;;14.00;99.90;;;;;;5077025;28;20449;-74
2022/10/02 07:18:12;;;;;;;5.87;2.53;;;14.00;99.90;;;;;;5087852;28;20429;-74
2022/10/02 07:21:14;;;;;;;9.63;2.83;;;14.00;99.90;;;;;;5087988;28;21015;-75
2022/10/02 07:23:49;;;;;;;9.77;3.17;;;14.10;99.90;;;;;;5086683;28;20453;-74
2022/10/02 07:27:01;;;;;;;7.03;2.60;;;14.10;99.90;;;;;;5085774;28;20927;-75
2022/10/02 07:29:47;;;;;;;7.07;3.60;;;14.10;99.90;;;;;;5066555;28;20456;-77
2022/10/02 07:32:22;;;;;;;5.60;2.30;;;14.10;99.90;;;;;;5080193;28;20446;-74
2022/10/02 07:35:20;;;;;;;7.17;2.27;;;14.00;99.90;;;;;;5087426;28;20437;-74
2022/10/02 07:38:18;;;;;;;11.10;5.27;;;14.00;99.90;;;;;;5088843;28;20754;-73
2022/10/02 07:41:08;;;;;;;12.90;2.60;;;14.10;99.90;;;;;;5082775;28;20541;-74
2022/10/02 07:44:13;;;;;;;5.27;2.40;;;14.00;99.90;;;;;;5090810;28;20429;-74
2022/10/02 07:47:00;;;;;;;5.03;2.87;;;14.00;99.90;;;;;;5082298;28;20465;-74
2022/10/02 07:49:52;;;;;;;5.33;2.70;;;14.00;99.90;;;;;;5105020;28;20448;-73
2022/10/02 07:52:48;;;;;;;11.97;3.50;;;14.10;99.90;;;;;;5081434;28;20434;-73
2022/10/02 07:55:24;;;;;;;10.57;4.27;;;14.10;99.90;;;;;;5081414;28;20442;-73
2022/10/02 07:58:12;;;;;;;13.23;7.47;;;14.20;99.90;;;;;;5082310;28;20507;-73
2022/10/02 08:00:47;;;;;;;6.37;4.00;;;14.20;99.90;;;;;;5084648;28;20435;-72
2022/10/02 08:03:20;;;;;;;16.23;4.40;;;14.20;99.90;;;;;;5087634;28;20555;-73
2022/10/02 08:05:54;;;;;;;8.50;3.30;;;14.20;99.90;;;;;;5084971;28;20538;-76
2022/10/02 08:08:38;;;;;;;8.03;4.40;;;14.20;99.90;;;;;;5090944;28;20538;-73
2022/10/02 08:11:10;;;;;;;5.60;4.10;;;14.20;99.90;;;;;;5075692;28;20482;-75
2022/10/02 08:13:44;;;;;;;15.43;4.50;;;14.30;99.90;;;;;;5089418;28;20426;-73
2022/10/02 08:16:12;;;;;;;9.93;3.70;;;14.30;99.90;;;;;;5091741;28;20466;-75
2022/10/02 08:18:56;;;;;;;8.03;3.97;;;14.30;99.90;;;;;;5095319;28;20482;-76
2022/10/02 08:21:24;;;;;;;5.70;3.27;;;14.40;99.90;;;;;;5089506;28;20568;-75
2022/10/02 08:24:15;;;;;;;8.20;3.00;;;14.40;99.90;;;;;;5090322;28;20434;-74
2022/10/02 08:26:54;;;;;;;8.90;3.20;;;14.30;99.90;;;;;;5091884;28;20438;-73
2022/10/02 08:29:47;;;;;;;8.50;3.30;;;14.30;99.90;;;;;;5082806;28;21153;-74
2022/10/02 08:32:13;;;;;;;12.47;4.03;;;14.30;99.90;;;;;;5083065;28;20547;-76
2022/10/02 08:34:40;;;;;;;9.03;3.30;;;14.30;99.90;;;;;;5086302;28;20461;-74
2022/10/02 08:37:24;;;;;;;35.90;4.13;;;13.90;99.90;;;;;;5088065;28;20439;-74
2022/10/02 08:40:02;;;;;;;19.97;2.50;;;14.40;99.90;;;;;;5089521;28;20550;-74
2022/10/02 08:42:56;;;;;;;2.60;2.13;;;14.30;99.90;;;;;;5088255;28;20440;-74
2022/10/02 08:45:42;;;;;;;3.50;1.97;;;14.30;99.90;;;;;;5074749;28;20992;-74
2022/10/02 08:48:48;;;;;;;25.67;2.47;;;14.20;99.90;;;;;;5084664;28;20539;-76
2022/10/02 08:51:32;;;;;;;5.10;2.27;;;14.40;99.90;;;;;;5089326;28;20679;-74
2022/10/02 08:54:14;;;;;;;5.87;1.87;;;14.40;99.90;;;;;;5089297;28;20432;-77
2022/10/02 08:56:54;;;;;;;9.60;2.40;;;14.40;99.90;;;;;;5086416;28;20429;-73
2022/10/02 08:59:24;;;;;;;2.00;1.73;;;14.40;99.90;;;;;;5091780;28;20475;-73
2022/10/02 09:01:56;;;;;;;1.93;1.73;;;14.40;99.90;;;;;;5092075;28;20409;-73
2022/10/02 09:04:39;;;;;;;2.10;1.60;;;14.40;99.90;;;;;;5077638;28;20514;-73
2022/10/02 09:07:35;;;;;;;2.23;1.90;;;14.40;99.90;;;;;;5083957;28;20555;-75
2022/10/02 09:10:00;;;;;;;1.97;1.60;;;14.50;99.90;;;;;;5070624;28;20430;-71
2022/10/02 09:12:44;;;;;;;4.10;2.93;;;14.40;99.90;;;;;;5089410;28;20425;-72
2022/10/02 09:15:45;;;;;;;6.80;1.70;;;14.50;99.90;;;;;;5076432;28;20587;-74
2022/10/02 09:18:29;;;;;;;2.50;2.00;;;14.40;99.90;;;;;;5081680;28;20998;-71
2022/10/02 09:21:14;;;;;;;2.60;2.40;;;14.40;99.90;;;;;;5094620;28;20427;-71
2022/10/02 09:24:17;;;;;;;6.83;2.67;;;14.40;99.90;;;;;;5090767;28;20441;-73
2022/10/02 09:27:07;;;;;;;4.20;2.33;;;14.40;99.90;;;;;;5088833;28;20409;-72
2022/10/02 09:29:47;;;;;;;11.93;3.63;;;14.50;99.90;;;;;;5087373;28;20475;-73
2022/10/02 09:32:25;;;;;;;4.20;2.80;;;14.50;99.90;;;;;;5089300;28;20422;-72
2022/10/02 09:35:13;;;;;;;3.17;2.20;;;14.50;99.90;;;;;;5089451;28;20463;-72
2022/10/02 09:38:05;;;;;;;6.17;1.90;;;14.50;99.90;;;;;;5090783;28;20410;-74
2022/10/02 09:40:54;;;;;;;2.20;1.77;;;14.50;99.90;;;;;;5081591;28;20445;-71
2022/10/02 09:43:42;;;;;;;12.70;2.60;;;14.60;99.90;;;;;;5066054;28;20526;-72
2022/10/02 09:46:58;;;;;;;1.80;1.60;;;14.60;99.90;;;;;;5086083;28;20932;-72
2022/10/02 09:49:41;;;;;;;13.17;3.73;;;14.60;99.90;;;;;;5075901;28;20511;-71
2022/10/02 09:52:30;;;;;;;6.57;3.03;;;14.70;99.90;;;;;;5082337;28;20402;-73
2022/10/02 09:55:20;;;;;;;2.47;2.17;;;14.80;99.90;;;;;;5085242;28;20427;-72
2022/10/02 09:58:30;;;;;;;31.00;17.80;;;14.80;99.90;;;;;;5088161;28;20405;-74
2022/10/02 10:01:10;;;;;;;14.73;9.57;;;14.80;99.90;;;;;;5088540;28;20449;-74
2022/10/02 10:03:48;;;;;;;27.10;16.23;;;14.80;99.90;;;;;;5080070;28;20422;-72
2022/10/02 10:06:46;;;;;;;4.03;3.00;;;14.80;99.90;;;;;;5072027;28;20482;-71
2022/10/02 10:09:34;;;;;;;2.77;2.57;;;14.70;99.90;;;;;;5083889;28;20475;-76
2022/10/02 10:12:08;;;;;;;3.20;2.30;;;14.70;99.90;;;;;;5081780;28;20429;-76
2022/10/02 10:15:11;;;;;;;3.20;1.83;;;14.80;99.90;;;;;;5088556;28;21053;-75
2022/10/02 10:18:16;;;;;;;4.63;2.30;;;14.80;99.90;;;;;;5087319;28;20833;-70
2022/10/02 10:21:17;;;;;;;2.30;2.00;;;14.80;99.90;;;;;;5092328;28;20446;-72
2022/10/02 10:24:06;;;;;;;2.97;1.70;;;14.80;99.90;;;;;;5087644;28;20425;-74
2022/10/02 10:26:33;;;;;;;6.20;2.40;;;14.70;99.90;;;;;;5080035;28;20413;-72
2022/10/02 10:29:08;;;;;;;2.90;2.50;;;14.60;99.90;;;;;;5084874;28;20453;-72
2022/10/02 10:31:45;;;;;;;2.40;2.20;;;14.60;99.90;;;;;;5103441;28;20403;-71
2022/10/02 10:34:50;;;;;;;3.90;2.00;;;14.70;99.90;;;;;;5110021;28;20855;-71
2022/10/02 10:40:54;;;;;;;2.47;2.20;;;14.70;99.90;;;;;;5071501;28;20482;-72
2022/10/02 10:43:43;;;;;;;2.97;2.20;;;14.70;99.90;;;;;;5078821;28;20441;-71
2022/10/02 10:46:30;;;;;;;2.00;1.80;;;14.80;99.90;;;;;;5082509;28;20448;-72
2022/10/02 10:49:13;;;;;;;1.93;1.43;;;14.90;99.90;;;;;;5081472;28;20461;-72
2022/10/02 10:52:21;;;;;;;2.17;1.73;;;14.90;99.90;;;;;;5079177;28;21095;-70
2022/10/02 10:54:54;;;;;;;2.27;2.07;;;15.10;99.90;;;;;;5044614;28;20455;-74
2022/10/02 10:57:33;;;;;;;6.00;3.03;;;15.00;99.90;;;;;;5077979;28;20498;-70
2022/10/02 11:00:08;;;;;;;3.73;2.03;;;15.00;99.90;;;;;;5089646;28;20500;-74
2022/10/02 11:02:52;;;;;;;3.57;3.27;;;15.10;99.90;;;;;;5087289;28;20767;-75
2022/10/02 11:05:38;;;;;;;1.43;1.10;;;15.20;99.90;;;;;;5071991;28;20446;-75
2022/10/02 11:08:42;;;;;;;2.80;2.03;;;15.10;99.90;;;;;;5075756;28;20495;-72
2022/10/02 11:11:30;;;;;;;2.60;2.27;;;15.10;99.90;;;;;;5071852;28;20441;-72
2022/10/02 11:14:25;;;;;;;2.00;1.53;;;15.10;99.90;;;;;;5080246;28;20520;-72
2022/10/02 11:17:19;;;;;;;2.17;1.60;;;15.10;99.90;;;;;;5082894;28;20407;-75
2022/10/02 11:19:58;;;;;;;3.10;1.70;;;14.90;99.90;;;;;;5080500;28;20816;-72
2022/10/02 11:22:48;;;;;;;1.63;1.53;;;15.00;99.90;;;;;;5083844;28;20444;-71
2022/10/02 11:26:03;;;;;;;2.00;1.80;;;14.90;99.90;;;;;;5080820;28;20429;-72
2022/10/02 11:29:03;;;;;;;1.80;1.70;;;14.90;99.90;;;;;;5080397;28;20468;-71
2022/10/02 11:31:52;;;;;;;3.13;2.50;;;14.90;99.90;;;;;;5045542;28;20554;-71
2022/10/02 11:34:42;;;;;;;2.77;1.33;;;14.90;99.90;;;;;;5087714;28;20430;-73
2022/10/02 11:37:37;;;;;;;1.83;1.67;;;14.80;99.90;;;;;;5085446;28;20417;-72
2022/10/02 11:40:12;;;;;;;4.70;4.17;;;14.90;99.90;;;;;;5067970;28;20466;-71
2022/10/02 11:43:17;;;;;;;4.93;3.57;;;15.00;99.90;;;;;;5085509;28;20807;-74
2022/10/02 11:46:07;;;;;;;6.43;4.70;;;15.00;99.90;;;;;;5087539;28;20528;-71
2022/10/02 11:49:02;;;;;;;3.70;3.17;;;14.90;99.90;;;;;;5094167;28;20444;-71
2022/10/02 11:52:04;;;;;;;5.43;3.80;;;14.90;99.90;;;;;;5083382;28;20954;-72
2022/10/02 11:54:44;;;;;;;4.80;4.10;;;14.90;99.90;;;;;;5084841;28;20784;-75
2022/10/02 11:57:20;;;;;;;4.30;3.00;;;14.80;99.90;;;;;;5087991;28;20420;-71
2022/10/02 11:59:45;;;;;;;3.73;2.10;;;15.00;99.90;;;;;;5086970;28;20536;-71
2022/10/02 12:02:15;;;;;;;3.10;2.10;;;15.10;99.90;;;;;;5081539;28;20508;-72
2022/10/02 12:04:51;;;;;;;4.80;2.60;;;15.10;99.90;;;;;;5088491;28;20218;-74
2022/10/02 12:07:44;;;;;;;2.50;2.10;;;15.10;99.90;;;;;;5086600;28;20456;-71
2022/10/02 12:10:16;;;;;;;2.70;2.30;;;15.10;99.90;;;;;;5077084;28;20433;-72
2022/10/02 12:12:56;;;;;;;4.70;2.20;;;15.30;99.90;;;;;;5086093;28;20432;-74
2022/10/02 12:15:30;;;;;;;2.87;2.00;;;15.10;99.90;;;;;;5083819;28;20567;-75
2022/10/02 12:18:33;;;;;;;5.27;3.60;;;15.00;99.90;;;;;;5087575;28;20502;-73
2022/10/02 12:27:54;;;;;;;6.03;3.10;;;15.00;99.90;;;;;;5083517;28;20424;-71
2022/10/02 12:30:26;;;;;;;8.83;2.30;;;15.20;99.90;;;;;;5089354;28;20425;-71
2022/10/02 12:33:24;;;;;;;3.97;1.90;;;15.10;99.90;;;;;;5086827;28;20905;-72
2022/10/02 12:36:15;;;;;;;1.90;1.30;;;15.20;99.90;;;;;;5085748;28;20409;-72
2022/10/02 12:38:49;;;;;;;3.63;1.70;;;15.30;99.90;;;;;;5084069;28;20469;-73
2022/10/02 12:41:51;;;;;;;1.97;1.50;;;15.20;99.90;;;;;;5087850;28;20525;-72
2022/10/02 12:44:43;;;;;;;4.00;1.70;;;15.20;99.90;;;;;;5079650;28;20504;-77
2022/10/02 12:47:22;;;;;;;8.20;3.50;;;15.20;99.90;;;;;;5089228;28;20416;-73
2022/10/02 12:50:04;;;;;;;3.00;2.60;;;15.20;99.90;;;;;;5088281;28;20445;-73
2022/10/02 12:52:58;;;;;;;2.70;2.50;;;15.10;99.90;;;;;;5091353;28;20414;-72
2022/10/02 12:55:42;;;;;;;3.40;3.00;;;15.10;99.90;;;;;;5086682;28;20453;-73
2022/10/02 12:58:35;;;;;;;3.70;2.93;;;15.10;99.90;;;;;;5071011;28;20418;-75
2022/10/02 13:01:39;;;;;;;2.50;2.20;;;15.20;99.90;;;;;;5083209;28;20398;-72
2022/10/02 13:04:41;;;;;;;3.17;2.80;;;15.30;99.90;;;;;;5077803;28;20425;-74
2022/10/02 13:07:54;;;;;;;3.83;1.83;;;15.40;99.90;;;;;;5083474;28;20402;-74
2022/10/02 13:10:26;;;;;;;17.03;2.80;;;15.40;99.90;;;;;;5082185;28;20666;-73
2022/10/02 13:13:04;;;;;;;5.47;3.73;;;15.40;99.90;;;;;;5080187;28;20431;-72
2022/10/02 13:15:47;;;;;;;2.63;2.00;;;15.30;99.90;;;;;;5091863;28;20398;-72
2022/10/02 13:18:32;;;;;;;2.33;1.70;;;15.20;99.90;;;;;;5096638;28;20453;-76
2022/10/02 13:21:17;;;;;;;2.93;2.07;;;15.20;99.90;;;;;;5088788;28;20428;-73
2022/10/02 13:23:50;;;;;;;5.97;1.87;;;15.10;99.90;;;;;;5089085;28;20410;-71
2022/10/02 13:26:48;;;;;;;3.67;1.50;;;15.00;99.90;;;;;;5088388;28;20476;-73
2022/10/02 13:29:41;;;;;;;3.13;2.80;;;15.10;99.90;;;;;;5088117;28;20510;-75
2022/10/02 13:32:13;;;;;;;4.23;2.50;;;15.20;99.90;;;;;;5090672;28;20413;-73
2022/10/02 13:35:02;;;;;;;4.50;1.70;;;15.20;99.90;;;;;;5085093;28;20425;-72
2022/10/02 13:37:45;;;;;;;2.47;2.13;;;15.20;99.90;;;;;;5082910;28;20457;-71
2022/10/02 13:40:26;;;;;;;6.20;2.40;;;15.30;99.90;;;;;;5079093;28;20454;-71
2022/10/02 13:43:25;;;;;;;3.30;2.93;;;15.20;99.90;;;;;;5088875;28;20402;-72
2022/10/02 13:46:04;;;;;;;3.00;2.00;;;15.10;99.90;;;;;;5081939;28;20427;-77
2022/10/02 13:48:39;;;;;;;7.03;1.87;;;15.20;99.90;;;;;;5089996;28;21062;-71
2022/10/02 13:51:19;;;;;;;2.43;2.23;;;15.10;99.90;;;;;;5073701;28;20429;-72
2022/10/02 13:53:57;;;;;;;2.10;1.80;;;15.20;99.90;;;;;;5088832;28;20426;-72
2022/10/02 13:56:42;;;;;;;2.50;2.30;;;15.30;99.90;;;;;;5082709;28;20426;-72
2022/10/02 13:59:26;;;;;;;3.97;2.87;;;15.20;99.90;;;;;;5107078;28;20461;-74
2022/10/02 14:02:10;;;;;;;8.23;3.80;;;15.10;99.90;;;;;;5096980;28;20547;-73
2022/10/02 14:04:43;;;;;;;9.23;3.40;;;15.10;99.90;;;;;;5087053;28;20424;-73
2022/10/02 14:07:25;;;;;;;11.80;4.00;;;15.00;99.90;;;;;;5089738;28;20481;-73
2022/10/02 14:10:04;;;;;;;6.60;2.70;;;15.10;99.90;;;;;;5088286;28;20442;-72
2022/10/02 14:12:39;;;;;;;13.67;4.00;;;15.10;99.90;;;;;;5069968;28;20418;-74